Time;durP1;ratioP1;P1;durP2;ratioP2;P2;SDS_P1;SDS_P2;PMS_P1;PMS_P2;Temp;Humidity;BMP_temperature;BMP_pressure;BME280_temperature;BME280_humidity;BME280_pressure;Samples;Min_cycle;Max_cycle;Signal;HPM_P1;HPM_P2
2021/09/22 00:01:59;;;;;;;21.55;7.35;;;12.20;99.90;;;;;;4797475;29;20082;-88
2021/09/22 00:04:24;;;;;;;15.85;7.80;;;12.20;99.90;;;;;;4807760;29;20504;-86
2021/09/22 00:06:50;;;;;;;19.05;8.05;;;12.20;99.90;;;;;;4807489;29;20053;-86
2021/09/22 00:09:16;;;;;;;16.20;7.68;;;12.20;99.90;;;;;;4790180;29;20065;-89
2021/09/22 00:11:41;;;;;;;18.58;7.60;;;12.20;99.90;;;;;;4790285;29;20111;-86
2021/09/22 00:14:07;;;;;;;17.05;7.10;;;12.20;99.90;;;;;;4775254;29;20059;-87
2021/09/22 00:16:33;;;;;;;17.13;6.97;;;12.10;99.90;;;;;;4790025;29;20059;-87
2021/09/22 00:18:59;;;;;;;19.40;6.80;;;12.10;99.90;;;;;;4808052;29;20042;-88
2021/09/22 00:21:24;;;;;;;15.00;8.00;;;12.10;99.90;;;;;;4787425;29;20047;-87
2021/09/22 00:23:50;;;;;;;14.30;7.25;;;12.00;99.90;;;;;;4775119;29;20061;-87
2021/09/22 00:26:16;;;;;;;22.98;8.45;;;12.00;99.90;;;;;;4796630;29;20050;-90
2021/09/22 00:28:41;;;;;;;19.33;7.78;;;12.00;99.90;;;;;;4792016;29;20572;-87
2021/09/22 00:31:07;;;;;;;16.33;6.70;;;11.90;99.90;;;;;;4787876;29;20050;-88
2021/09/22 00:33:33;;;;;;;19.38;8.13;;;11.90;99.90;;;;;;4778355;29;20046;-87
2021/09/22 00:35:59;;;;;;;15.82;8.30;;;11.80;99.90;;;;;;4807443;29;20084;-88
2021/09/22 00:38:25;;;;;;;16.38;7.65;;;11.70;99.90;;;;;;4780418;29;20050;-88
2021/09/22 00:40:51;;;;;;;13.65;6.93;;;11.70;99.90;;;;;;4816299;29;20060;-88
2021/09/22 00:43:17;;;;;;;15.45;7.22;;;11.60;99.90;;;;;;4794952;29;20076;-89
2021/09/22 00:45:43;;;;;;;18.77;8.23;;;11.60;99.90;;;;;;4807229;29;20054;-89
2021/09/22 00:48:09;;;;;;;14.82;8.63;;;11.50;99.90;;;;;;4780684;29;20061;-87
2021/09/22 00:50:35;;;;;;;16.25;8.25;;;11.50;99.90;;;;;;4789561;29;20050;-87
2021/09/22 00:53:02;;;;;;;18.33;7.63;;;11.50;99.90;;;;;;4806063;29;20152;-87
2021/09/22 00:55:27;;;;;;;16.05;8.32;;;11.50;99.90;;;;;;4802211;29;20548;-87
2021/09/22 00:57:55;;;;;;;13.85;7.65;;;11.40;99.90;;;;;;4790190;29;20134;-87
2021/09/22 01:00:25;;;;;;;17.92;10.05;;;11.40;99.90;;;;;;4789260;29;20065;-93
2021/09/22 01:02:50;;;;;;;22.80;10.27;;;11.30;99.90;;;;;;4792114;29;20086;-86
2021/09/22 01:05:23;;;;;;;24.05;11.57;;;11.30;99.90;;;;;;4804761;29;20560;-87
2021/09/22 01:07:48;;;;;;;22.85;11.18;;;11.20;99.90;;;;;;4795465;29;20510;-86
2021/09/22 01:10:15;;;;;;;21.58;11.32;;;11.20;99.90;;;;;;4781184;29;20051;-87
2021/09/22 01:12:42;;;;;;;19.40;11.23;;;11.20;99.90;;;;;;4795977;29;20052;-87
2021/09/22 01:15:09;;;;;;;13.40;9.00;;;11.10;99.90;;;;;;4799992;29;20069;-88
2021/09/22 01:17:35;;;;;;;37.83;13.98;;;11.10;99.90;;;;;;4790599;29;20439;-86
2021/09/22 01:20:03;;;;;;;24.55;11.93;;;11.10;99.90;;;;;;4776228;29;20047;-87
2021/09/22 01:22:29;;;;;;;19.25;10.50;;;11.00;99.90;;;;;;4793147;29;20074;-87
2021/09/22 01:24:54;;;;;;;24.08;13.73;;;11.00;99.90;;;;;;4789279;29;20792;-87
2021/09/22 01:27:20;;;;;;;19.50;12.93;;;11.00;99.90;;;;;;4800868;29;20488;-88
2021/09/22 01:29:47;;;;;;;25.90;12.73;;;10.90;99.90;;;;;;4789367;29;20576;-86
2021/09/22 01:32:13;;;;;;;25.27;13.23;;;10.90;99.90;;;;;;4789092;29;20107;-87
2021/09/22 01:34:39;;;;;;;31.42;14.15;;;10.90;99.90;;;;;;4787548;29;20454;-88
2021/09/22 01:37:05;;;;;;;32.25;14.50;;;10.80;99.90;;;;;;4777250;29;20053;-87
2021/09/22 01:39:42;;;;;;;22.73;12.60;;;10.90;99.90;;;;;;4782943;29;20047;-86
2021/09/22 01:42:09;;;;;;;23.35;12.05;;;10.80;99.90;;;;;;4784682;29;20050;-88
2021/09/22 01:44:36;;;;;;;29.42;13.13;;;10.80;99.90;;;;;;4788631;29;20093;-87
2021/09/22 01:47:03;;;;;;;29.65;13.63;;;10.80;99.90;;;;;;4789493;29;20116;-89
2021/09/22 01:49:29;;;;;;;24.25;12.65;;;10.80;99.90;;;;;;4812112;29;20137;-86
2021/09/22 01:52:01;;;;;;;18.42;10.55;;;10.70;99.90;;;;;;4775089;29;20137;-87
2021/09/22 01:54:27;;;;;;;19.90;11.70;;;10.80;99.90;;;;;;4799165;29;20050;-90
2021/09/22 01:56:54;;;;;;;17.02;12.15;;;10.70;99.90;;;;;;4797220;29;20049;-86
2021/09/22 01:59:19;;;;;;;27.77;14.88;;;10.70;99.90;;;;;;4809132;29;20055;-87
2021/09/22 02:01:45;;;;;;;19.20;11.02;;;10.70;99.90;;;;;;4790991;29;20042;-87
2021/09/22 02:04:11;;;;;;;37.33;14.48;;;10.60;99.90;;;;;;4799101;29;20063;-87
2021/09/22 02:06:37;;;;;;;27.65;13.82;;;10.70;99.90;;;;;;4785654;29;20058;-86
2021/09/22 02:09:03;;;;;;;21.98;11.80;;;10.70;99.90;;;;;;4787642;29;20069;-86
2021/09/22 02:11:29;;;;;;;36.20;15.30;;;10.70;99.90;;;;;;4783572;29;20089;-87
2021/09/22 02:13:55;;;;;;;32.58;14.27;;;10.70;99.90;;;;;;4784531;29;20086;-87
2021/09/22 02:16:21;;;;;;;20.90;11.13;;;10.80;99.90;;;;;;4798405;29;20069;-86
2021/09/22 02:18:46;;;;;;;21.15;12.60;;;10.80;99.90;;;;;;4784963;29;20041;-86
2021/09/22 02:21:12;;;;;;;19.77;13.20;;;10.80;99.90;;;;;;4789796;29;20430;-87
2021/09/22 02:23:39;;;;;;;30.92;16.35;;;10.80;99.90;;;;;;4773233;29;20057;-87
2021/09/22 02:26:05;;;;;;;24.77;13.63;;;10.90;99.90;;;;;;4813685;29;20065;-87
2021/09/22 02:28:32;;;;;;;24.88;13.77;;;11.00;99.90;;;;;;4804098;29;20081;-86
2021/09/22 02:30:57;;;;;;;27.67;15.43;;;11.00;99.90;;;;;;4783418;29;20057;-87
2021/09/22 02:33:23;;;;;;;22.33;11.93;;;11.00;99.90;;;;;;4773849;29;20130;-87
2021/09/22 02:35:49;;;;;;;21.92;11.80;;;11.00;99.90;;;;;;4787834;29;20046;-86
2021/09/22 02:38:15;;;;;;;26.40;13.20;;;11.00;99.90;;;;;;4813963;29;20059;-86
2021/09/22 02:40:41;;;;;;;23.77;12.32;;;11.00;99.90;;;;;;4788125;29;20082;-87
2021/09/22 02:43:06;;;;;;;16.77;11.05;;;11.00;99.90;;;;;;4793189;29;20046;-86
2021/09/22 02:45:32;;;;;;;20.92;12.40;;;11.00;99.90;;;;;;4786861;29;20071;-86
2021/09/22 02:47:58;;;;;;;22.67;11.75;;;11.10;99.90;;;;;;4758307;29;20051;-86
2021/09/22 02:50:24;;;;;;;22.23;13.05;;;11.10;99.90;;;;;;4787657;29;20496;-85
2021/09/22 02:52:51;;;;;;;20.15;11.45;;;11.10;99.90;;;;;;4789199;29;20058;-86
2021/09/22 02:55:17;;;;;;;18.95;12.02;;;11.10;99.90;;;;;;4788638;29;20054;-87
2021/09/22 02:57:43;;;;;;;20.67;12.35;;;11.20;99.90;;;;;;4787222;29;20066;-88
2021/09/22 03:00:10;;;;;;;29.08;13.32;;;11.20;99.90;;;;;;4785108;29;20063;-86
2021/09/22 03:02:37;;;;;;;26.77;12.85;;;11.30;99.90;;;;;;4787430;29;20042;-87
2021/09/22 03:05:04;;;;;;;21.95;13.88;;;11.40;99.90;;;;;;4789098;29;20488;-87
2021/09/22 03:07:30;;;;;;;29.10;14.48;;;11.50;99.90;;;;;;4799424;29;20058;-90
2021/09/22 03:09:56;;;;;;;21.42;12.35;;;11.50;99.90;;;;;;4781674;29;20039;-87
2021/09/22 03:12:21;;;;;;;24.58;13.95;;;11.50;99.90;;;;;;4777501;29;20055;-87
2021/09/22 03:14:47;;;;;;;26.45;12.45;;;11.60;99.90;;;;;;4788249;29;20062;-87
2021/09/22 03:17:13;;;;;;;25.42;12.77;;;11.60;99.90;;;;;;4803417;29;20050;-86
2021/09/22 03:19:38;;;;;;;21.13;13.20;;;11.60;99.90;;;;;;4785915;29;20523;-86
2021/09/22 03:22:04;;;;;;;23.40;13.93;;;11.70;99.90;;;;;;4803451;29;20058;-86
2021/09/22 03:24:31;;;;;;;25.10;13.50;;;11.60;99.90;;;;;;4788931;29;20407;-89
2021/09/22 03:26:58;;;;;;;27.15;13.70;;;11.60;99.90;;;;;;4775926;29;20089;-86
2021/09/22 03:29:24;;;;;;;24.30;13.20;;;11.60;99.90;;;;;;4795203;29;20125;-86
2021/09/22 03:31:49;;;;;;;22.17;13.02;;;11.60;99.90;;;;;;4782786;29;20137;-86
2021/09/22 03:34:15;;;;;;;21.85;12.88;;;11.70;99.90;;;;;;4813062;29;20050;-87
2021/09/22 03:36:41;;;;;;;24.90;13.35;;;11.70;99.90;;;;;;4772037;29;20050;-86
2021/09/22 03:39:07;;;;;;;25.55;14.35;;;11.70;99.90;;;;;;4790202;29;20053;-87
2021/09/22 03:41:32;;;;;;;34.53;14.52;;;11.70;99.90;;;;;;4795657;29;20135;-90
2021/09/22 03:43:58;;;;;;;28.02;14.95;;;11.70;99.90;;;;;;4780622;29;20404;-86
2021/09/22 03:46:24;;;;;;;35.45;15.40;;;11.70;99.90;;;;;;4788414;29;20047;-87
2021/09/22 03:48:50;;;;;;;28.98;15.30;;;11.70;99.90;;;;;;4798740;29;20138;-86
2021/09/22 03:51:15;;;;;;;27.20;14.75;;;11.70;99.90;;;;;;4793179;29;20065;-86
2021/09/22 03:53:41;;;;;;;25.27;14.80;;;11.70;99.90;;;;;;4786867;29;20073;-87
2021/09/22 03:56:07;;;;;;;27.65;16.17;;;11.70;99.90;;;;;;4779938;29;20154;-87
2021/09/22 03:58:33;;;;;;;24.20;15.10;;;11.80;99.90;;;;;;4801757;29;20051;-89
2021/09/22 04:00:59;;;;;;;24.10;14.15;;;11.70;99.90;;;;;;4792832;29;20078;-85
2021/09/22 04:03:25;;;;;;;23.40;14.50;;;11.70;99.90;;;;;;4789729;29;20073;-87
2021/09/22 04:05:50;;;;;;;20.98;13.52;;;11.70;99.90;;;;;;4786446;29;20094;-87
2021/09/22 04:08:16;;;;;;;24.48;13.70;;;11.60;99.90;;;;;;4806521;29;20153;-87
2021/09/22 04:10:42;;;;;;;24.65;13.65;;;11.60;99.90;;;;;;4803390;29;20555;-86
2021/09/22 04:13:08;;;;;;;20.20;12.95;;;11.60;99.90;;;;;;4790895;29;20454;-87
2021/09/22 04:15:34;;;;;;;20.67;12.93;;;11.50;99.90;;;;;;4791088;29;20055;-87
2021/09/22 04:18:00;;;;;;;22.02;14.38;;;11.40;99.90;;;;;;4795441;29;20062;-88
2021/09/22 04:20:26;;;;;;;23.70;14.52;;;11.40;99.90;;;;;;4783180;29;20062;-86
2021/09/22 04:22:51;;;;;;;22.00;13.00;;;11.30;99.90;;;;;;4805468;29;20059;-89
2021/09/22 04:25:17;;;;;;;25.25;13.82;;;11.30;99.90;;;;;;4790855;29;20061;-87
2021/09/22 04:27:43;;;;;;;18.20;12.77;;;11.20;99.90;;;;;;4790409;29;20212;-86
2021/09/22 04:30:09;;;;;;;23.75;15.07;;;11.20;99.90;;;;;;4780155;29;20087;-87
2021/09/22 04:32:35;;;;;;;20.77;13.73;;;11.20;99.90;;;;;;4795850;29;20069;-89
2021/09/22 04:35:01;;;;;;;26.33;14.55;;;11.20;99.90;;;;;;4780893;29;20074;-86
2021/09/22 04:37:34;;;;;;;17.90;12.77;;;11.20;99.90;;;;;;4797839;29;20567;-86
2021/09/22 04:40:00;;;;;;;22.00;12.73;;;11.10;99.90;;;;;;4789751;29;20047;-87
2021/09/22 04:42:26;;;;;;;23.20;12.60;;;11.10;99.90;;;;;;4795887;29;20114;-87
2021/09/22 04:44:51;;;;;;;22.38;13.20;;;11.00;99.90;;;;;;4808361;29;20108;-87
2021/09/22 04:47:17;;;;;;;23.38;14.10;;;11.00;99.90;;;;;;4801695;29;20065;-87
2021/09/22 04:49:43;;;;;;;25.85;13.38;;;11.00;99.90;;;;;;4779187;29;20043;-87
2021/09/22 04:52:09;;;;;;;18.67;12.82;;;10.90;99.90;;;;;;4790360;29;20089;-87
2021/09/22 04:54:34;;;;;;;24.55;13.82;;;10.90;99.90;;;;;;4775612;29;20051;-87
2021/09/22 04:57:00;;;;;;;16.88;10.90;;;10.90;99.90;;;;;;4775014;29;20737;-88
2021/09/22 04:59:26;;;;;;;20.70;12.00;;;10.80;99.90;;;;;;4790376;29;20058;-87
2021/09/22 05:01:51;;;;;;;19.73;12.13;;;10.80;99.90;;;;;;4790076;29;20055;-89
2021/09/22 05:04:17;;;;;;;23.50;13.80;;;10.80;99.90;;;;;;4788145;29;20055;-89
2021/09/22 05:06:42;;;;;;;22.60;13.32;;;10.80;99.90;;;;;;4800176;29;20073;-92
2021/09/22 05:09:08;;;;;;;21.70;13.57;;;10.70;99.90;;;;;;4775304;29;20065;-88
2021/09/22 05:11:34;;;;;;;20.63;12.95;;;10.70;99.90;;;;;;4790381;29;20062;-87
2021/09/22 05:13:59;;;;;;;15.75;11.20;;;10.60;99.90;;;;;;4786479;29;20574;-89
2021/09/22 05:16:25;;;;;;;22.85;14.15;;;10.60;99.90;;;;;;4774862;29;20107;-87
2021/09/22 05:18:51;;;;;;;20.13;11.90;;;10.50;99.90;;;;;;4792456;29;20047;-88
2021/09/22 05:21:17;;;;;;;34.20;16.45;;;10.50;99.90;;;;;;4788603;29;20058;-86
2021/09/22 05:23:42;;;;;;;34.63;17.67;;;10.50;99.90;;;;;;4789723;29;20055;-92
2021/09/22 05:26:08;;;;;;;34.90;18.27;;;10.60;99.90;;;;;;4789412;29;20054;-87
2021/09/22 05:28:34;;;;;;;34.55;18.40;;;10.50;99.90;;;;;;4789779;29;20086;-87
2021/09/22 05:31:00;;;;;;;25.27;15.88;;;10.50;99.90;;;;;;4784532;29;20058;-88
2021/09/22 05:33:25;;;;;;;27.08;16.85;;;10.50;99.90;;;;;;4793006;29;20529;-87
2021/09/22 05:35:51;;;;;;;23.05;14.55;;;10.50;99.90;;;;;;4806615;29;20066;-87
2021/09/22 05:38:18;;;;;;;25.70;17.00;;;10.50;99.90;;;;;;4787872;29;20061;-88
2021/09/22 05:40:44;;;;;;;28.60;17.50;;;10.50;99.90;;;;;;4796736;29;20055;-91
2021/09/22 05:43:10;;;;;;;29.35;18.98;;;10.60;99.90;;;;;;4787073;29;20108;-91
2021/09/22 05:45:35;;;;;;;31.98;18.30;;;10.60;99.90;;;;;;4814722;29;20057;-89
2021/09/22 05:48:01;;;;;;;38.70;19.65;;;10.60;99.90;;;;;;4793003;29;20063;-88
2021/09/22 05:50:27;;;;;;;74.85;18.83;;;10.60;99.90;;;;;;4789227;29;20058;-88
2021/09/22 05:52:53;;;;;;;74.03;18.38;;;10.60;99.90;;;;;;4789077;29;20054;-87
2021/09/22 05:55:18;;;;;;;81.95;19.15;;;10.60;99.90;;;;;;4794131;29;20046;-87
2021/09/22 05:57:44;;;;;;;88.07;18.35;;;10.70;99.90;;;;;;4797384;29;20054;-92
2021/09/22 06:00:10;;;;;;;107.30;17.30;;;10.70;99.90;;;;;;4792189;29;20479;-88
2021/09/22 06:02:36;;;;;;;144.60;22.33;;;10.70;99.90;;;;;;4816863;29;20086;-90
2021/09/22 06:05:02;;;;;;;117.85;21.02;;;10.70;99.90;;;;;;4790579;29;20104;-88
2021/09/22 06:07:28;;;;;;;145.20;20.60;;;10.70;99.90;;;;;;4801709;29;20144;-89
2021/09/22 06:09:53;;;;;;;177.93;24.48;;;10.80;99.90;;;;;;4808463;29;20050;-88
2021/09/22 06:12:19;;;;;;;195.18;26.75;;;10.80;99.90;;;;;;4805288;29;20416;-88
2021/09/22 06:14:45;;;;;;;147.98;21.77;;;10.80;99.90;;;;;;4788289;29;20108;-90
2021/09/22 06:17:11;;;;;;;106.72;19.20;;;10.90;99.90;;;;;;4799796;29;20058;-89
2021/09/22 06:19:36;;;;;;;141.45;23.48;;;10.90;99.90;;;;;;4803998;29;20098;-89
2021/09/22 06:22:02;;;;;;;145.93;22.75;;;10.90;99.90;;;;;;4787975;29;20093;-89
2021/09/22 06:24:28;;;;;;;62.72;16.40;;;10.90;99.90;;;;;;4799701;29;20556;-89
2021/09/22 06:26:55;;;;;;;78.07;19.17;;;10.90;99.90;;;;;;4786671;29;20046;-89
2021/09/22 06:29:21;;;;;;;74.53;23.13;;;11.00;99.90;;;;;;4816778;29;20081;-89
2021/09/22 06:31:46;;;;;;;64.43;22.95;;;11.10;99.90;;;;;;4789974;29;20086;-89
2021/09/22 06:34:12;;;;;;;33.72;21.60;;;11.10;99.90;;;;;;4792594;29;20050;-90
2021/09/22 06:36:38;;;;;;;47.38;24.67;;;11.20;99.90;;;;;;4762481;29;20535;-89
2021/09/22 06:39:05;;;;;;;46.17;25.95;;;11.30;99.90;;;;;;4775968;30;20086;-89
2021/09/22 06:41:32;;;;;;;32.67;21.70;;;11.50;99.90;;;;;;4769427;29;20304;-89
2021/09/22 06:43:58;;;;;;;43.65;24.88;;;11.50;99.90;;;;;;4782240;29;20087;-89
2021/09/22 06:46:24;;;;;;;41.63;23.98;;;11.60;99.90;;;;;;4770965;29;20511;-89
2021/09/22 06:48:49;;;;;;;37.42;23.17;;;11.60;99.90;;;;;;4786853;29;20059;-90
2021/09/22 06:51:18;;;;;;;40.05;24.75;;;11.70;99.90;;;;;;4774119;30;20134;-88
2021/09/22 06:53:45;;;;;;;41.17;23.13;;;11.90;99.90;;;;;;4783808;29;20104;-88
2021/09/22 06:56:11;;;;;;;35.45;23.02;;;11.90;99.90;;;;;;4771866;29;20119;-88
2021/09/22 06:58:36;;;;;;;41.35;24.60;;;12.10;99.90;;;;;;4765041;30;20504;-88
2021/09/22 07:01:02;;;;;;;36.95;23.73;;;12.20;99.90;;;;;;4768295;30;20098;-88
2021/09/22 07:03:28;;;;;;;37.67;24.30;;;12.20;99.90;;;;;;4768896;29;20048;-88
2021/09/22 07:05:54;;;;;;;36.60;22.38;;;12.30;99.90;;;;;;4765416;29;20063;-87
2021/09/22 07:08:20;;;;;;;37.38;22.70;;;12.40;99.90;;;;;;4775496;29;20079;-88
2021/09/22 07:10:46;;;;;;;32.30;21.75;;;12.40;99.90;;;;;;4753658;29;20052;-88
2021/09/22 07:13:12;;;;;;;37.90;22.67;;;12.50;99.90;;;;;;4766363;30;20090;-90
2021/09/22 07:15:39;;;;;;;34.22;21.95;;;12.60;99.90;;;;;;4764587;30;20079;-91
2021/09/22 07:18:05;;;;;;;35.20;23.48;;;12.60;99.90;;;;;;4766333;29;20053;-88
2021/09/22 07:20:31;;;;;;;39.92;22.52;;;12.70;99.90;;;;;;4770356;29;20405;-87
2021/09/22 07:22:57;;;;;;;40.33;22.52;;;12.80;99.90;;;;;;4770978;29;20061;-87
2021/09/22 07:25:23;;;;;;;38.70;22.55;;;12.80;99.90;;;;;;4772238;29;20048;-89
2021/09/22 07:27:49;;;;;;;33.45;20.38;;;12.90;99.90;;;;;;4754183;29;20070;-88
2021/09/22 07:30:15;;;;;;;33.30;20.35;;;13.00;99.90;;;;;;4773038;29;20135;-87
2021/09/22 07:32:46;;;;;;;34.75;20.45;;;13.00;99.90;;;;;;4773447;29;20409;-89
2021/09/22 07:35:13;;;;;;;32.00;20.95;;;13.10;99.90;;;;;;4775487;29;20623;-89
2021/09/22 07:37:39;;;;;;;36.85;21.50;;;13.10;99.90;;;;;;4779016;29;20155;-92
2021/09/22 07:40:06;;;;;;;41.45;20.30;;;13.10;99.90;;;;;;4758597;30;20055;-92
2021/09/22 07:42:32;;;;;;;32.50;20.20;;;13.20;99.90;;;;;;4781930;30;20051;-92
2021/09/22 07:44:59;;;;;;;36.03;20.23;;;13.30;99.90;;;;;;4762437;30;20063;-92
2021/09/22 07:47:25;;;;;;;35.47;19.02;;;13.30;99.90;;;;;;4769281;30;20505;-93
2021/09/22 07:49:51;;;;;;;36.30;19.92;;;13.40;99.90;;;;;;4761660;29;20101;-93
2021/09/22 07:52:17;;;;;;;29.33;19.70;;;13.40;99.90;;;;;;4785264;29;20124;-92
2021/09/22 07:54:43;;;;;;;32.58;18.63;;;13.40;99.90;;;;;;4769695;29;20142;-92
2021/09/22 07:57:10;;;;;;;28.30;17.27;;;13.50;99.90;;;;;;4785776;29;20572;-92
2021/09/22 07:59:36;;;;;;;26.65;16.85;;;13.60;99.90;;;;;;4767926;30;20039;-93
2021/09/22 08:02:02;;;;;;;28.70;16.27;;;13.70;99.90;;;;;;4775195;29;20377;-92
2021/09/22 08:04:28;;;;;;;33.55;15.93;;;13.80;99.90;;;;;;4779186;29;20052;-92
2021/09/22 08:06:56;;;;;;;24.15;15.10;;;13.90;99.90;;;;;;4777157;29;20185;-94
2021/09/22 08:09:22;;;;;;;23.50;14.45;;;14.00;99.90;;;;;;4777721;29;20063;-92
2021/09/22 08:11:48;;;;;;;25.13;13.98;;;14.00;99.90;;;;;;4770693;29;20101;-93
2021/09/22 08:14:14;;;;;;;25.77;13.85;;;14.10;99.90;;;;;;4766300;29;20058;-92
2021/09/22 08:16:39;;;;;;;19.55;13.05;;;14.20;99.90;;;;;;4785709;29;20055;-92
2021/09/22 08:19:05;;;;;;;24.25;12.77;;;14.30;99.90;;;;;;4770716;29;20043;-91
2021/09/22 08:21:31;;;;;;;21.92;12.40;;;14.30;99.90;;;;;;4771494;29;20451;-93
2021/09/22 08:23:57;;;;;;;21.65;11.30;;;14.30;99.90;;;;;;4767310;30;20489;-93
2021/09/22 08:26:22;;;;;;;21.92;11.38;;;14.40;99.90;;;;;;4767185;30;20074;-91
2021/09/22 08:28:48;;;;;;;20.65;11.00;;;14.50;99.90;;;;;;4772865;30;20051;-91
2021/09/22 08:31:14;;;;;;;23.73;12.32;;;14.60;99.90;;;;;;4765408;29;20502;-90
2021/09/22 08:33:40;;;;;;;18.13;10.13;;;14.70;99.90;;;;;;4756814;30;20131;-91
2021/09/22 08:36:08;;;;;;;17.85;9.88;;;14.80;99.90;;;;;;4769440;29;20104;-90
2021/09/22 08:38:35;;;;;;;22.45;10.60;;;14.90;99.90;;;;;;4782843;29;20126;-90
2021/09/22 08:41:01;;;;;;;22.38;11.38;;;14.90;99.90;;;;;;4763809;30;20410;-91
2021/09/22 08:43:28;;;;;;;17.65;9.50;;;15.00;99.90;;;;;;4788284;29;20047;-91
2021/09/22 08:45:55;;;;;;;17.92;10.05;;;15.00;99.90;;;;;;4783711;29;20051;-90
2021/09/22 08:48:24;;;;;;;20.60;9.48;;;15.10;99.90;;;;;;4776011;29;20039;-91
2021/09/22 08:50:50;;;;;;;20.50;9.68;;;15.20;99.90;;;;;;4771039;29;20448;-93
2021/09/22 08:53:15;;;;;;;16.42;8.93;;;15.30;99.90;;;;;;4766748;29;20068;-93
2021/09/22 08:55:41;;;;;;;15.65;8.35;;;15.40;99.90;;;;;;4763672;30;20455;-92
2021/09/22 08:58:07;;;;;;;17.70;8.18;;;15.50;99.90;;;;;;4771703;29;20154;-91
2021/09/22 09:00:33;;;;;;;19.30;9.57;;;15.60;99.90;;;;;;4772852;29;20052;-90
2021/09/22 09:02:59;;;;;;;21.15;9.18;;;15.60;99.90;;;;;;4755450;30;20062;-91
2021/09/22 09:05:25;;;;;;;13.70;7.88;;;15.80;99.90;;;;;;4768138;30;20059;-91
2021/09/22 09:08:00;;;;;;;16.23;8.15;;;15.90;99.90;;;;;;4788382;29;20055;-92
2021/09/22 09:10:29;;;;;;;20.23;9.23;;;16.10;99.90;;;;;;4773221;29;20040;-92
2021/09/22 09:13:06;;;;;;;21.70;9.57;;;16.40;99.90;;;;;;4772453;30;20367;-90
2021/09/22 09:15:45;;;;;;;17.70;8.95;;;16.50;99.90;;;;;;4762131;30;20099;-93
2021/09/22 09:18:17;;;;;;;20.65;10.18;;;16.60;99.90;;;;;;4774313;29;20055;-94
2021/09/22 09:20:47;;;;;;;16.20;10.15;;;16.70;99.90;;;;;;4760422;29;20903;-94
2021/09/22 09:23:14;;;;;;;17.05;9.35;;;16.80;99.90;;;;;;4776166;29;20083;-90
2021/09/22 09:25:45;;;;;;;17.05;10.43;;;16.90;99.90;;;;;;4781176;29;20052;-91
2021/09/22 09:28:16;;;;;;;18.85;11.23;;;17.00;99.90;;;;;;4773156;29;20083;-92
2021/09/22 09:30:54;;;;;;;15.48;9.60;;;16.90;99.90;;;;;;4777589;29;20058;-92
2021/09/22 09:33:44;;;;;;;15.52;10.93;;;16.80;99.90;;;;;;4788577;29;20059;-94
2021/09/22 09:36:13;;;;;;;16.00;11.20;;;16.80;99.90;;;;;;4782294;29;20059;-92
2021/09/22 09:38:39;;;;;;;16.67;11.18;;;16.80;99.90;;;;;;4784499;29;20051;-92
2021/09/22 09:41:04;;;;;;;19.83;11.82;;;16.90;99.90;;;;;;4742294;30;20058;-89
2021/09/22 09:43:30;;;;;;;19.23;12.68;;;17.00;99.90;;;;;;4768540;29;20051;-89
2021/09/22 09:45:56;;;;;;;24.88;12.80;;;17.00;99.90;;;;;;4760931;30;20048;-90
2021/09/22 09:48:22;;;;;;;22.65;12.40;;;17.10;99.90;;;;;;4774706;29;20056;-88
2021/09/22 09:50:52;;;;;;;24.55;12.80;;;17.30;99.90;;;;;;4769207;29;20058;-87
2021/09/22 09:53:30;;;;;;;22.58;12.93;;;17.40;99.90;;;;;;4781699;29;20055;-89
2021/09/22 09:56:00;;;;;;;22.83;14.00;;;17.40;99.90;;;;;;4778313;29;20055;-89
2021/09/22 09:58:48;;;;;;;23.70;13.75;;;17.40;99.90;;;;;;4786269;29;20116;-86
2021/09/22 10:01:16;;;;;;;19.63;13.70;;;17.40;99.90;;;;;;4788139;30;20052;-87
2021/09/22 10:03:43;;;;;;;25.08;15.38;;;17.40;99.90;;;;;;4786715;30;20142;-87
2021/09/22 10:06:09;;;;;;;26.95;15.13;;;17.50;99.90;;;;;;4780125;29;20100;-91
2021/09/22 10:08:35;;;;;;;23.27;14.93;;;17.50;99.90;;;;;;4772571;29;20055;-90
2021/09/22 10:11:03;;;;;;;23.65;15.15;;;17.50;99.90;;;;;;4766889;30;20051;-90
2021/09/22 10:13:31;;;;;;;20.58;14.70;;;17.60;99.90;;;;;;4788282;29;20061;-89
2021/09/22 10:15:57;;;;;;;21.40;13.45;;;17.60;99.90;;;;;;4777341;29;20051;-88
2021/09/22 10:18:24;;;;;;;23.98;14.07;;;17.70;99.90;;;;;;4778759;29;20498;-88
2021/09/22 10:20:50;;;;;;;21.75;14.32;;;17.80;99.90;;;;;;4768008;29;20055;-88
2021/09/22 10:23:19;;;;;;;23.13;13.23;;;17.80;99.90;;;;;;4776495;29;20048;-88
2021/09/22 10:25:46;;;;;;;23.40;12.98;;;17.80;99.90;;;;;;4768517;29;20050;-88
2021/09/22 10:28:13;;;;;;;27.88;14.57;;;17.80;99.90;;;;;;4771673;29;20055;-92
2021/09/22 10:30:42;;;;;;;24.63;12.85;;;17.90;99.90;;;;;;4781746;29;20086;-91
2021/09/22 10:33:26;;;;;;;20.20;11.88;;;17.90;99.90;;;;;;4767941;30;20063;-92
2021/09/22 10:35:59;;;;;;;20.83;11.88;;;17.90;99.90;;;;;;4780551;29;20071;-90
2021/09/22 10:38:28;;;;;;;22.35;12.30;;;18.10;99.90;;;;;;4754364;30;20113;-90
2021/09/22 10:41:02;;;;;;;20.42;12.90;;;18.20;99.90;;;;;;4772826;29;20044;-91
2021/09/22 10:43:35;;;;;;;21.95;13.52;;;18.30;99.90;;;;;;4782774;29;20493;-91
2021/09/22 10:46:10;;;;;;;26.38;13.50;;;18.40;99.90;;;;;;4776962;30;20130;-91
2021/09/22 10:48:59;;;;;;;21.45;14.45;;;18.40;99.90;;;;;;4771668;29;20046;-91
2021/09/22 10:51:34;;;;;;;22.37;13.77;;;18.50;99.90;;;;;;4752641;29;20501;-90
2021/09/22 10:54:11;;;;;;;20.67;13.95;;;18.60;99.90;;;;;;4765721;29;20367;-90
2021/09/22 10:56:59;;;;;;;23.30;13.65;;;18.70;99.90;;;;;;4767154;29;20057;-89
2021/09/22 10:59:28;;;;;;;19.95;12.63;;;18.80;99.90;;;;;;4753343;29;20059;-90
2021/09/22 11:01:53;;;;;;;23.25;12.98;;;19.00;99.90;;;;;;4765986;29;20040;-90
2021/09/22 11:04:20;;;;;;;25.88;12.88;;;19.20;99.90;;;;;;4751087;29;20516;-90
2021/09/22 11:06:46;;;;;;;19.08;11.70;;;19.30;99.90;;;;;;4765673;29;20051;-90
2021/09/22 11:09:21;;;;;;;25.95;13.20;;;19.30;99.90;;;;;;4756306;30;20044;-90
2021/09/22 11:11:56;;;;;;;25.92;11.85;;;19.40;99.90;;;;;;4782251;29;20704;-90
2021/09/22 11:14:30;;;;;;;21.10;12.40;;;19.40;99.90;;;;;;4784439;29;20050;-89
2021/09/22 11:17:15;;;;;;;19.70;11.35;;;19.50;99.90;;;;;;4782332;29;20059;-91
2021/09/22 11:19:43;;;;;;;22.70;11.60;;;19.70;99.90;;;;;;4776902;29;20047;-90
2021/09/22 11:22:18;;;;;;;19.58;11.63;;;19.80;99.90;;;;;;4785295;29;20128;-90
2021/09/22 11:24:44;;;;;;;18.27;11.10;;;19.90;99.90;;;;;;4784184;29;20043;-90
2021/09/22 11:27:15;;;;;;;21.70;11.15;;;20.10;99.90;;;;;;4786558;29;20079;-90
2021/09/22 11:29:49;;;;;;;16.42;9.88;;;20.10;99.90;;;;;;4780725;29;20142;-89
2021/09/22 11:32:42;;;;;;;18.67;9.93;;;20.40;99.90;;;;;;4782536;29;20583;-91
2021/09/22 11:35:19;;;;;;;18.85;9.40;;;20.50;99.90;;;;;;4774914;29;20150;-89
2021/09/22 11:37:53;;;;;;;18.55;10.35;;;20.40;99.90;;;;;;4786425;29;20066;-90
2021/09/22 11:40:31;;;;;;;16.08;9.32;;;20.30;99.90;;;;;;4785102;29;20154;-90
2021/09/22 11:43:10;;;;;;;17.23;9.75;;;20.20;99.90;;;;;;4786284;29;20059;-90
2021/09/22 11:45:38;;;;;;;17.05;7.63;;;20.20;99.90;;;;;;4784498;29;20634;-90
2021/09/22 11:48:08;;;;;;;15.68;7.93;;;20.20;99.90;;;;;;4773268;29;20458;-90
2021/09/22 11:50:40;;;;;;;17.15;7.30;;;20.10;99.90;;;;;;4763665;30;20051;-89
2021/09/22 11:53:11;;;;;;;20.30;7.82;;;20.00;99.90;;;;;;4786370;29;20506;-89
2021/09/22 11:55:39;;;;;;;15.52;7.80;;;20.10;99.90;;;;;;4781929;29;20051;-89
2021/09/22 11:58:15;;;;;;;19.60;8.73;;;20.10;99.90;;;;;;4786354;29;20116;-89
2021/09/22 12:00:44;;;;;;;15.77;7.43;;;20.30;99.90;;;;;;4784040;29;20090;-89
2021/09/22 12:03:14;;;;;;;15.07;7.47;;;20.50;99.90;;;;;;4798796;29;20137;-89
2021/09/22 12:05:40;;;;;;;;;;;20.70;99.90;;;;;;4778578;29;20575;-89
2021/09/22 12:08:07;;;;;;;12.10;7.45;;;20.90;99.90;;;;;;4786182;29;20014;-89
2021/09/22 12:10:34;;;;;;;13.95;7.65;;;21.00;99.90;;;;;;4778818;29;20059;-88
2021/09/22 12:13:04;;;;;;;16.20;8.25;;;21.10;99.90;;;;;;4786155;29;20451;-88
2021/09/22 12:15:32;;;;;;;22.77;8.55;;;21.20;99.90;;;;;;4775257;29;20052;-89
2021/09/22 12:17:58;;;;;;;17.85;8.13;;;21.40;99.90;;;;;;4765811;30;20055;-89
2021/09/22 12:20:25;;;;;;;14.75;7.93;;;21.60;99.90;;;;;;4773227;29;20509;-90
2021/09/22 12:23:05;;;;;;;16.63;7.20;;;21.60;99.90;;;;;;4780345;29;20087;-89
2021/09/22 12:25:32;;;;;;;14.63;7.40;;;21.60;99.90;;;;;;4760166;30;20067;-88
2021/09/22 12:27:59;;;;;;;12.43;8.18;;;21.50;99.90;;;;;;4783995;29;20158;-89
2021/09/22 12:30:33;;;;;;;13.00;7.93;;;21.50;99.90;;;;;;4776043;29;20055;-89